Houari Boumediene current weather conditions

sailwx.info

Air temperature 17.0° C
Dewpoint 13.0° C

Last reported at 2014-Oct-31 19:30 UTC.
Time now 2014-Nov-01 12:38 UTC

Location: N 36°41' E 003°13'.
View on Google Maps.

See reports from other nearby stations

  
Tides and Currents Weather Stations Pressure Air Temp Water Temp Dewpoint Dewpoint Depression Visibility Wind Speed Wind Dir Waves Ship Positions
date/time (UTC)wind fromknots sea level pressurealtimeterstation pressurevisibilityair tempwater tempwave heightnotes
2014-Oct-31 19:30 17.0
2014-Oct-31 19:00 090 4 18.0
2014-Oct-31 18:30 060 7 19.0
2014-Oct-31 18:00 060 8 20.0
2014-Oct-31 17:30 050 8 20.0
2014-Oct-31 17:00 050 8 20.0
2014-Oct-31 16:30 040 11 21.0
2014-Oct-31 16:00 040 11 22.0
2014-Oct-31 15:30 040 12 23.0
2014-Oct-31 15:00 040 12 24.0
2014-Oct-31 14:30 050 11 25.0
2014-Oct-31 14:00 030 11 24.0
2014-Oct-31 13:30 030 10 24.0
2014-Oct-31 13:00 040 8 24.0
2014-Oct-31 12:30 030 9 24.0
2014-Oct-31 12:00 030 7 24.0
2014-Oct-31 11:30 020 9 23.0
2014-Oct-31 11:00 010 7 23.0
2014-Oct-31 10:30 020 7 22.0
2014-Oct-31 10:00 020 6 21.0
2014-Oct-31 09:30 22.0
2014-Oct-31 09:00 19.0
2014-Oct-31 08:30 17.0
2014-Oct-31 08:00 15.0
2014-Oct-31 07:30 12.0
2014-Oct-31 07:00 8.0
2014-Oct-31 06:30 4.3 7.0
2014-Oct-31 06:00 4.3 7.0
2014-Oct-31 05:30 7.0
2014-Oct-31 05:00 170 1 7.0
2014-Oct-31 04:30 7.0
2014-Oct-31 04:00 8.0
2014-Oct-31 03:30 130 3 8.0
2014-Oct-31 03:00 090 3 8.0
2014-Oct-31 02:30 8.0
2014-Oct-31 02:00 8.0
2014-Oct-31 01:30 9.0
2014-Oct-31 01:00 9.0
2014-Oct-31 00:30 170 1 9.0
2014-Oct-31 00:00 140 2 10.0
2014-Oct-30 23:30 10.0
2014-Oct-30 23:00 090 2 11.0
2014-Oct-30 22:30 120 1 11.0
2014-Oct-30 22:00 12.0
2014-Oct-30 21:30 160 4 12.0
2014-Oct-30 21:00 13.0
2014-Oct-30 20:30 15.0
2014-Oct-30 20:00 100 4 16.0
2014-Oct-30 19:30 060 6 19.0
2014-Oct-30 19:00 060 6 19.0
2014-Oct-30 18:30 060 6 20.0
2014-Oct-30 18:00 050 9 20.0
2014-Oct-30 17:30 050 11 20.0
2014-Oct-30 17:00 050 11 21.0
2014-Oct-30 16:30 050 12 22.0
2014-Oct-30 16:00 050 14 24.0
2014-Oct-30 15:30 050 15 25.0
2014-Oct-30 15:00 050 14 25.0
2014-Oct-30 14:30 040 16 26.0
2014-Oct-30 14:00 040 13 26.0
2014-Oct-30 13:30 050 13 27.0
2014-Oct-30 13:00 030 13 27.0
2014-Oct-30 12:30 040 7 27.0
2014-Oct-30 12:00 040 7 27.0